sensor_id;sensor_type;location;lat;lon;timestamp;temperature;humidity
63445;DHT22;49573;47.682;9.170;2024-01-11T00:02:20;0.10;81.30
63445;DHT22;49573;47.682;9.170;2024-01-11T00:05:06;0.00;80.80
63445;DHT22;49573;47.682;9.170;2024-01-11T00:07:54;0.00;81.20
63445;DHT22;49573;47.682;9.170;2024-01-11T00:10:40;0.00;81.10
63445;DHT22;49573;47.682;9.170;2024-01-11T00:13:26;0.00;81.10
63445;DHT22;49573;47.682;9.170;2024-01-11T00:16:12;0.00;81.20
63445;DHT22;49573;47.682;9.170;2024-01-11T00:18:58;0.00;81.10
63445;DHT22;49573;47.682;9.170;2024-01-11T00:21:44;0.00;81.20
63445;DHT22;49573;47.682;9.170;2024-01-11T00:24:32;0.00;81.10
63445;DHT22;49573;47.682;9.170;2024-01-11T00:27:18;0.00;80.90
63445;DHT22;49573;47.682;9.170;2024-01-11T00:30:06;0.00;81.00
63445;DHT22;49573;47.682;9.170;2024-01-11T00:32:52;0.00;81.10
63445;DHT22;49573;47.682;9.170;2024-01-11T00:35:38;0.00;81.40
63445;DHT22;49573;47.682;9.170;2024-01-11T00:38:24;0.00;81.20
63445;DHT22;49573;47.682;9.170;2024-01-11T00:41:11;0.00;81.30
63445;DHT22;49573;47.682;9.170;2024-01-11T00:43:57;0.00;81.20
63445;DHT22;49573;47.682;9.170;2024-01-11T00:46:43;0.00;81.30
63445;DHT22;49573;47.682;9.170;2024-01-11T00:49:29;0.00;81.20
63445;DHT22;49573;47.682;9.170;2024-01-11T00:52:15;0.00;81.20
63445;DHT22;49573;47.682;9.170;2024-01-11T00:55:02;-3276.70;81.10
63445;DHT22;49573;47.682;9.170;2024-01-11T00:57:49;-3276.70;81.50
63445;DHT22;49573;47.682;9.170;2024-01-11T01:00:36;-3276.70;81.30
63445;DHT22;49573;47.682;9.170;2024-01-11T01:03:22;-3276.70;81.40
63445;DHT22;49573;47.682;9.170;2024-01-11T01:06:08;-3276.70;81.50
63445;DHT22;49573;47.682;9.170;2024-01-11T01:08:55;-3276.70;81.60
63445;DHT22;49573;47.682;9.170;2024-01-11T01:11:41;-3276.70;81.60
63445;DHT22;49573;47.682;9.170;2024-01-11T01:14:29;-3276.60;81.40
63445;DHT22;49573;47.682;9.170;2024-01-11T01:17:15;-3276.60;81.60
63445;DHT22;49573;47.682;9.170;2024-01-11T01:20:01;-3276.60;81.50
63445;DHT22;49573;47.682;9.170;2024-01-11T01:22:47;-3276.60;81.30
63445;DHT22;49573;47.682;9.170;2024-01-11T01:25:33;-3276.60;81.10
63445;DHT22;49573;47.682;9.170;2024-01-11T01:28:19;-3276.60;81.50
63445;DHT22;49573;47.682;9.170;2024-01-11T01:31:06;-3276.60;81.70
63445;DHT22;49573;47.682;9.170;2024-01-11T01:33:52;-3276.50;81.60
63445;DHT22;49573;47.682;9.170;2024-01-11T01:36:38;-3276.60;81.70
63445;DHT22;49573;47.682;9.170;2024-01-11T01:39:24;-3276.60;81.80
63445;DHT22;49573;47.682;9.170;2024-01-11T01:42:10;-3276.60;81.80
63445;DHT22;49573;47.682;9.170;2024-01-11T01:44:56;-3276.60;81.30
63445;DHT22;49573;47.682;9.170;2024-01-11T01:47:44;-3276.60;81.30
63445;DHT22;49573;47.682;9.170;2024-01-11T01:50:30;-3276.60;80.90
63445;DHT22;49573;47.682;9.170;2024-01-11T01:53:17;-3276.50;80.80
63445;DHT22;49573;47.682;9.170;2024-01-11T01:56:04;-3276.40;80.40
63445;DHT22;49573;47.682;9.170;2024-01-11T01:58:52;-3276.40;80.50
63445;DHT22;49573;47.682;9.170;2024-01-11T02:01:39;-3276.40;80.50
63445;DHT22;49573;47.682;9.170;2024-01-11T02:04:27;-3276.40;80.50
63445;DHT22;49573;47.682;9.170;2024-01-11T02:07:13;-3276.40;80.70
63445;DHT22;49573;47.682;9.170;2024-01-11T02:10:00;-3276.50;80.70
63445;DHT22;49573;47.682;9.170;2024-01-11T02:12:46;-3276.40;80.50
63445;DHT22;49573;47.682;9.170;2024-01-11T02:15:33;-3276.40;80.30
63445;DHT22;49573;47.682;9.170;2024-01-11T02:18:19;-3276.40;80.30
63445;DHT22;49573;47.682;9.170;2024-01-11T02:21:09;-3276.40;80.30
63445;DHT22;49573;47.682;9.170;2024-01-11T02:24:02;-3276.30;80.30
63445;DHT22;49573;47.682;9.170;2024-01-11T02:26:58;-3276.30;80.30
63445;DHT22;49573;47.682;9.170;2024-01-11T02:29:47;-3276.30;80.10
63445;DHT22;49573;47.682;9.170;2024-01-11T02:32:33;-3276.30;79.80
63445;DHT22;49573;47.682;9.170;2024-01-11T02:35:20;-3276.30;80.30
63445;DHT22;49573;47.682;9.170;2024-01-11T02:38:06;-3276.20;80.10
63445;DHT22;49573;47.682;9.170;2024-01-11T02:40:54;-3276.20;80.00
63445;DHT22;49573;47.682;9.170;2024-01-11T02:43:40;-3276.20;80.30
63445;DHT22;49573;47.682;9.170;2024-01-11T02:46:26;-3276.20;80.10
63445;DHT22;49573;47.682;9.170;2024-01-11T02:49:12;-3276.20;80.10
63445;DHT22;49573;47.682;9.170;2024-01-11T02:51:58;-3276.20;80.00
63445;DHT22;49573;47.682;9.170;2024-01-11T02:54:44;-3276.20;80.40
63445;DHT22;49573;47.682;9.170;2024-01-11T02:57:32;-3276.10;80.20
63445;DHT22;49573;47.682;9.170;2024-01-11T03:00:18;-3276.10;80.00
63445;DHT22;49573;47.682;9.170;2024-01-11T03:03:05;-3276.10;80.40
63445;DHT22;49573;47.682;9.170;2024-01-11T03:05:51;-3276.10;80.30
63445;DHT22;49573;47.682;9.170;2024-01-11T03:08:37;-3276.10;80.30
63445;DHT22;49573;47.682;9.170;2024-01-11T03:11:23;-3276.10;80.40
63445;DHT22;49573;47.682;9.170;2024-01-11T03:14:10;-3276.10;80.30
63445;DHT22;49573;47.682;9.170;2024-01-11T03:16:56;-3276.10;80.30
63445;DHT22;49573;47.682;9.170;2024-01-11T03:19:42;-3276.10;80.00
63445;DHT22;49573;47.682;9.170;2024-01-11T03:22:28;-3276.10;79.60
63445;DHT22;49573;47.682;9.170;2024-01-11T03:25:14;-3276.10;79.90
63445;DHT22;49573;47.682;9.170;2024-01-11T03:28:00;-3276.00;79.80
63445;DHT22;49573;47.682;9.170;2024-01-11T03:30:48;-3276.00;79.80
63445;DHT22;49573;47.682;9.170;2024-01-11T03:33:34;-3276.00;79.80
63445;DHT22;49573;47.682;9.170;2024-01-11T03:36:23;-3276.00;80.00
63445;DHT22;49573;47.682;9.170;2024-01-11T03:39:09;-3276.00;79.50
63445;DHT22;49573;47.682;9.170;2024-01-11T03:41:55;-3276.00;79.80
63445;DHT22;49573;47.682;9.170;2024-01-11T03:44:41;-3276.00;79.50
63445;DHT22;49573;47.682;9.170;2024-01-11T03:47:29;-3275.90;79.80
63445;DHT22;49573;47.682;9.170;2024-01-11T03:50:15;-3275.90;79.70
63445;DHT22;49573;47.682;9.170;2024-01-11T03:53:01;-3275.90;79.80
63445;DHT22;49573;47.682;9.170;2024-01-11T03:55:48;-3275.80;79.90
63445;DHT22;49573;47.682;9.170;2024-01-11T03:58:35;-3275.80;79.90
63445;DHT22;49573;47.682;9.170;2024-01-11T04:01:22;-3275.90;79.80
63445;DHT22;49573;47.682;9.170;2024-01-11T04:04:10;-3275.80;80.00
63445;DHT22;49573;47.682;9.170;2024-01-11T04:06:56;-3275.90;79.60
63445;DHT22;49573;47.682;9.170;2024-01-11T04:09:42;-3275.80;79.70
63445;DHT22;49573;47.682;9.170;2024-01-11T04:12:28;-3275.60;79.90
63445;DHT22;49573;47.682;9.170;2024-01-11T04:15:14;-3275.70;80.00
63445;DHT22;49573;47.682;9.170;2024-01-11T04:18:00;-3275.70;80.20
63445;DHT22;49573;47.682;9.170;2024-01-11T04:20:48;-3275.70;80.40
63445;DHT22;49573;47.682;9.170;2024-01-11T04:23:34;-3275.80;80.40
63445;DHT22;49573;47.682;9.170;2024-01-11T04:26:21;-3275.80;80.20
63445;DHT22;49573;47.682;9.170;2024-01-11T04:29:07;-3275.80;80.20
63445;DHT22;49573;47.682;9.170;2024-01-11T04:31:53;-3275.80;80.10
63445;DHT22;49573;47.682;9.170;2024-01-11T04:34:39;-3275.70;80.30
63445;DHT22;49573;47.682;9.170;2024-01-11T04:37:26;-3275.70;80.40
63445;DHT22;49573;47.682;9.170;2024-01-11T04:40:12;-3275.70;80.30
63445;DHT22;49573;47.682;9.170;2024-01-11T04:42:58;-3275.70;80.30
63445;DHT22;49573;47.682;9.170;2024-01-11T04:45:44;-3275.70;80.40
63445;DHT22;49573;47.682;9.170;2024-01-11T04:48:30;-3275.70;80.50
63445;DHT22;49573;47.682;9.170;2024-01-11T04:51:17;-3275.70;80.20
63445;DHT22;49573;47.682;9.170;2024-01-11T04:54:05;-3275.70;80.20
63445;DHT22;49573;47.682;9.170;2024-01-11T04:56:51;-3275.80;80.30
63445;DHT22;49573;47.682;9.170;2024-01-11T04:59:37;-3275.70;80.30
63445;DHT22;49573;47.682;9.170;2024-01-11T05:02:23;-3275.70;80.30
63445;DHT22;49573;47.682;9.170;2024-01-11T05:05:09;-3275.70;80.20
63445;DHT22;49573;47.682;9.170;2024-01-11T05:07:55;-3275.60;80.10
63445;DHT22;49573;47.682;9.170;2024-01-11T05:10:42;-3275.60;80.20
63445;DHT22;49573;47.682;9.170;2024-01-11T05:13:28;-3275.60;80.40
63445;DHT22;49573;47.682;9.170;2024-01-11T05:16:19;-3275.60;80.60
63445;DHT22;49573;47.682;9.170;2024-01-11T05:19:05;-3275.60;80.80
63445;DHT22;49573;47.682;9.170;2024-01-11T05:21:51;-3275.60;80.70
63445;DHT22;49573;47.682;9.170;2024-01-11T05:24:37;-3275.60;80.60
63445;DHT22;49573;47.682;9.170;2024-01-11T05:27:24;-3275.60;80.60
63445;DHT22;49573;47.682;9.170;2024-01-11T05:30:11;-3275.60;80.60
63445;DHT22;49573;47.682;9.170;2024-01-11T05:32:57;-3275.60;80.50
63445;DHT22;49573;47.682;9.170;2024-01-11T05:35:43;-3275.60;80.50
63445;DHT22;49573;47.682;9.170;2024-01-11T05:38:29;-3275.60;80.60
63445;DHT22;49573;47.682;9.170;2024-01-11T05:41:15;-3275.60;80.60
63445;DHT22;49573;47.682;9.170;2024-01-11T05:44:03;-3275.60;80.50
63445;DHT22;49573;47.682;9.170;2024-01-11T05:46:50;-3275.60;80.30
63445;DHT22;49573;47.682;9.170;2024-01-11T05:49:36;-3275.60;80.50
63445;DHT22;49573;47.682;9.170;2024-01-11T05:52:22;-3275.60;80.20
63445;DHT22;49573;47.682;9.170;2024-01-11T05:55:08;-3275.60;80.30
63445;DHT22;49573;47.682;9.170;2024-01-11T05:57:54;-3275.60;80.50
63445;DHT22;49573;47.682;9.170;2024-01-11T06:00:41;-3275.60;80.50
63445;DHT22;49573;47.682;9.170;2024-01-11T06:03:27;-3275.60;80.60
63445;DHT22;49573;47.682;9.170;2024-01-11T06:06:14;-3275.60;80.50
63445;DHT22;49573;47.682;9.170;2024-01-11T06:09:00;-3275.60;80.60
63445;DHT22;49573;47.682;9.170;2024-01-11T06:11:46;-3275.60;80.50
63445;DHT22;49573;47.682;9.170;2024-01-11T06:14:32;-3275.60;80.20
63445;DHT22;49573;47.682;9.170;2024-01-11T06:17:19;-3275.60;80.50
63445;DHT22;49573;47.682;9.170;2024-01-11T06:20:06;-3275.60;80.50
63445;DHT22;49573;47.682;9.170;2024-01-11T06:22:52;-3275.50;80.50
63445;DHT22;49573;47.682;9.170;2024-01-11T06:25:38;-3275.50;80.80
63445;DHT22;49573;47.682;9.170;2024-01-11T06:28:24;-3275.60;80.70
63445;DHT22;49573;47.682;9.170;2024-01-11T06:31:10;-3275.60;80.60
63445;DHT22;49573;47.682;9.170;2024-01-11T06:33:57;-3275.60;80.60
63445;DHT22;49573;47.682;9.170;2024-01-11T06:36:43;-3275.50;80.50
63445;DHT22;49573;47.682;9.170;2024-01-11T06:39:30;-3275.50;80.80
63445;DHT22;49573;47.682;9.170;2024-01-11T06:42:16;-3275.50;80.90
63445;DHT22;49573;47.682;9.170;2024-01-11T06:45:02;-3275.50;80.70
63445;DHT22;49573;47.682;9.170;2024-01-11T06:47:49;-3275.50;80.90
63445;DHT22;49573;47.682;9.170;2024-01-11T06:50:36;-3275.50;80.60
63445;DHT22;49573;47.682;9.170;2024-01-11T06:53:22;-3275.50;80.80
63445;DHT22;49573;47.682;9.170;2024-01-11T06:56:14;-3275.50;80.60
63445;DHT22;49573;47.682;9.170;2024-01-11T06:59:00;-3275.40;80.60
63445;DHT22;49573;47.682;9.170;2024-01-11T07:01:46;-3275.40;80.80
63445;DHT22;49573;47.682;9.170;2024-01-11T07:04:32;-3275.40;80.70
63445;DHT22;49573;47.682;9.170;2024-01-11T07:07:20;-3275.40;80.50
63445;DHT22;49573;47.682;9.170;2024-01-11T07:10:06;-3275.40;80.20
63445;DHT22;49573;47.682;9.170;2024-01-11T07:12:54;-3275.40;80.60
63445;DHT22;49573;47.682;9.170;2024-01-11T07:15:40;-3275.40;80.30
63445;DHT22;49573;47.682;9.170;2024-01-11T07:18:26;-3275.40;80.40
63445;DHT22;49573;47.682;9.170;2024-01-11T07:21:12;-3275.30;80.40
63445;DHT22;49573;47.682;9.170;2024-01-11T07:23:59;-3275.40;80.40
63445;DHT22;49573;47.682;9.170;2024-01-11T07:26:46;-3275.30;80.20
63445;DHT22;49573;47.682;9.170;2024-01-11T07:29:32;-3275.20;80.30
63445;DHT22;49573;47.682;9.170;2024-01-11T07:32:18;-3275.10;80.50
63445;DHT22;49573;47.682;9.170;2024-01-11T07:35:05;-3275.20;80.60
63445;DHT22;49573;47.682;9.170;2024-01-11T07:37:52;-3275.20;80.60
63445;DHT22;49573;47.682;9.170;2024-01-11T07:40:39;-3275.20;80.30
63445;DHT22;49573;47.682;9.170;2024-01-11T07:43:26;-3275.20;80.40
63445;DHT22;49573;47.682;9.170;2024-01-11T07:46:13;-3275.20;80.50
63445;DHT22;49573;47.682;9.170;2024-01-11T07:48:59;-3275.30;80.80
63445;DHT22;49573;47.682;9.170;2024-01-11T07:51:45;-3275.20;80.50
63445;DHT22;49573;47.682;9.170;2024-01-11T07:54:31;-3275.30;80.20
63445;DHT22;49573;47.682;9.170;2024-01-11T07:57:19;-3275.20;80.20
63445;DHT22;49573;47.682;9.170;2024-01-11T08:00:06;-3275.20;80.50
63445;DHT22;49573;47.682;9.170;2024-01-11T08:02:52;-3275.20;79.90
63445;DHT22;49573;47.682;9.170;2024-01-11T08:05:40;-3275.20;80.10
63445;DHT22;49573;47.682;9.170;2024-01-11T08:08:26;-3275.20;79.80
63445;DHT22;49573;47.682;9.170;2024-01-11T08:11:12;-3275.20;80.30
63445;DHT22;49573;47.682;9.170;2024-01-11T08:13:59;-3275.20;80.20
63445;DHT22;49573;47.682;9.170;2024-01-11T08:16:45;-3275.20;79.70
63445;DHT22;49573;47.682;9.170;2024-01-11T08:19:31;-3275.10;80.00
63445;DHT22;49573;47.682;9.170;2024-01-11T08:22:18;-3275.20;80.20
63445;DHT22;49573;47.682;9.170;2024-01-11T08:25:05;-3275.20;80.00
63445;DHT22;49573;47.682;9.170;2024-01-11T08:27:51;-3275.20;80.00
63445;DHT22;49573;47.682;9.170;2024-01-11T08:30:38;-3275.10;80.00
63445;DHT22;49573;47.682;9.170;2024-01-11T08:33:24;-3275.20;80.30
63445;DHT22;49573;47.682;9.170;2024-01-11T08:36:11;-3275.20;80.00
63445;DHT22;49573;47.682;9.170;2024-01-11T08:38:57;-3275.20;79.90
63445;DHT22;49573;47.682;9.170;2024-01-11T08:41:43;-3275.20;79.90
63445;DHT22;49573;47.682;9.170;2024-01-11T08:44:29;-3275.30;79.60
63445;DHT22;49573;47.682;9.170;2024-01-11T08:47:16;-3275.10;79.60
63445;DHT22;49573;47.682;9.170;2024-01-11T08:50:03;-3275.20;79.70
63445;DHT22;49573;47.682;9.170;2024-01-11T08:52:51;-3275.10;79.90
63445;DHT22;49573;47.682;9.170;2024-01-11T08:55:37;-3275.20;79.80
63445;DHT22;49573;47.682;9.170;2024-01-11T08:58:23;-3275.20;79.60
63445;DHT22;49573;47.682;9.170;2024-01-11T09:01:10;-3275.30;79.80
63445;DHT22;49573;47.682;9.170;2024-01-11T09:03:57;-3275.20;79.70
63445;DHT22;49573;47.682;9.170;2024-01-11T09:06:43;-3275.20;79.50
63445;DHT22;49573;47.682;9.170;2024-01-11T09:09:30;-3275.30;79.50
63445;DHT22;49573;47.682;9.170;2024-01-11T09:12:16;-3275.30;79.30
63445;DHT22;49573;47.682;9.170;2024-01-11T09:15:03;-3275.20;79.50
63445;DHT22;49573;47.682;9.170;2024-01-11T09:17:49;-3275.20;79.70
63445;DHT22;49573;47.682;9.170;2024-01-11T09:20:37;-3275.20;79.70
63445;DHT22;49573;47.682;9.170;2024-01-11T09:23:23;-3275.30;79.30
63445;DHT22;49573;47.682;9.170;2024-01-11T09:26:09;-3275.30;79.40
63445;DHT22;49573;47.682;9.170;2024-01-11T09:28:56;-3275.30;79.40
63445;DHT22;49573;47.682;9.170;2024-01-11T09:31:42;-3275.40;79.00
63445;DHT22;49573;47.682;9.170;2024-01-11T09:34:28;-3275.40;79.00
63445;DHT22;49573;47.682;9.170;2024-01-11T09:37:15;-3275.30;79.00
63445;DHT22;49573;47.682;9.170;2024-01-11T09:40:02;-3275.40;79.30
63445;DHT22;49573;47.682;9.170;2024-01-11T09:42:48;-3275.40;79.10
63445;DHT22;49573;47.682;9.170;2024-01-11T09:45:36;-3275.30;78.90
63445;DHT22;49573;47.682;9.170;2024-01-11T09:48:23;-3275.40;79.20
63445;DHT22;49573;47.682;9.170;2024-01-11T09:51:10;-3275.40;79.20
63445;DHT22;49573;47.682;9.170;2024-01-11T09:54:01;-3275.40;79.00
63445;DHT22;49573;47.682;9.170;2024-01-11T09:56:48;-3275.50;78.90
63445;DHT22;49573;47.682;9.170;2024-01-11T09:59:36;-3275.50;79.30
63445;DHT22;49573;47.682;9.170;2024-01-11T10:02:23;-3275.60;79.10
63445;DHT22;49573;47.682;9.170;2024-01-11T10:05:09;-3275.60;78.90
63445;DHT22;49573;47.682;9.170;2024-01-11T10:07:56;-3275.60;79.00
63445;DHT22;49573;47.682;9.170;2024-01-11T10:10:44;-3275.60;78.80
63445;DHT22;49573;47.682;9.170;2024-01-11T10:13:31;-3275.60;78.60
63445;DHT22;49573;47.682;9.170;2024-01-11T10:16:17;-3275.60;78.80
63445;DHT22;49573;47.682;9.170;2024-01-11T10:19:03;-3275.50;78.70
63445;DHT22;49573;47.682;9.170;2024-01-11T10:21:49;-3275.60;79.20
63445;DHT22;49573;47.682;9.170;2024-01-11T10:24:35;-3275.60;79.00
63445;DHT22;49573;47.682;9.170;2024-01-11T10:27:26;-3275.40;79.30
63445;DHT22;49573;47.682;9.170;2024-01-11T10:30:14;-3275.60;79.20
63445;DHT22;49573;47.682;9.170;2024-01-11T10:33:02;-3275.60;78.70
63445;DHT22;49573;47.682;9.170;2024-01-11T10:35:48;-3275.50;78.80
63445;DHT22;49573;47.682;9.170;2024-01-11T10:38:39;-3275.40;79.10
63445;DHT22;49573;47.682;9.170;2024-01-11T10:41:26;-3275.40;79.00
63445;DHT22;49573;47.682;9.170;2024-01-11T10:44:18;-3275.40;79.10
63445;DHT22;49573;47.682;9.170;2024-01-11T10:47:05;-3275.40;79.00
63445;DHT22;49573;47.682;9.170;2024-01-11T10:49:57;-3275.40;79.10
63445;DHT22;49573;47.682;9.170;2024-01-11T10:52:54;-3275.40;79.70
63445;DHT22;49573;47.682;9.170;2024-01-11T10:55:42;-3275.50;79.40
63445;DHT22;49573;47.682;9.170;2024-01-11T10:58:30;-3275.50;79.40
63445;DHT22;49573;47.682;9.170;2024-01-11T11:01:20;-3275.60;79.10
63445;DHT22;49573;47.682;9.170;2024-01-11T11:04:07;-3275.60;79.00
63445;DHT22;49573;47.682;9.170;2024-01-11T11:06:55;-3275.60;79.30
63445;DHT22;49573;47.682;9.170;2024-01-11T11:09:45;-3275.70;79.00
63445;DHT22;49573;47.682;9.170;2024-01-11T11:12:32;-3275.70;78.90
63445;DHT22;49573;47.682;9.170;2024-01-11T11:15:20;-3275.80;78.90
63445;DHT22;49573;47.682;9.170;2024-01-11T11:18:09;-3275.90;78.80
63445;DHT22;49573;47.682;9.170;2024-01-11T11:20:55;-3275.90;78.90
63445;DHT22;49573;47.682;9.170;2024-01-11T11:23:42;-3275.90;78.80
63445;DHT22;49573;47.682;9.170;2024-01-11T11:26:31;-3275.90;78.80
63445;DHT22;49573;47.682;9.170;2024-01-11T11:29:19;-3275.90;78.80
63445;DHT22;49573;47.682;9.170;2024-01-11T11:32:06;-3275.90;78.40
63445;DHT22;49573;47.682;9.170;2024-01-11T11:34:53;-3275.80;78.60
63445;DHT22;49573;47.682;9.170;2024-01-11T11:37:39;-3275.90;78.60
63445;DHT22;49573;47.682;9.170;2024-01-11T11:40:32;-3275.90;78.20
63445;DHT22;49573;47.682;9.170;2024-01-11T11:43:20;-3275.90;78.70
63445;DHT22;49573;47.682;9.170;2024-01-11T11:46:07;-3276.00;78.30
63445;DHT22;49573;47.682;9.170;2024-01-11T11:48:54;-3275.70;78.50
63445;DHT22;49573;47.682;9.170;2024-01-11T11:51:43;-3275.70;78.90
63445;DHT22;49573;47.682;9.170;2024-01-11T11:54:29;-3275.80;78.60
63445;DHT22;49573;47.682;9.170;2024-01-11T11:57:16;-3275.80;78.80
63445;DHT22;49573;47.682;9.170;2024-01-11T12:00:04;-3275.70;78.20
63445;DHT22;49573;47.682;9.170;2024-01-11T12:02:55;-3275.80;78.70
63445;DHT22;49573;47.682;9.170;2024-01-11T12:05:42;-3275.90;78.60
63445;DHT22;49573;47.682;9.170;2024-01-11T12:08:31;-3275.90;78.90
63445;DHT22;49573;47.682;9.170;2024-01-11T12:11:18;-3275.90;78.50
63445;DHT22;49573;47.682;9.170;2024-01-11T12:14:04;-3276.00;78.40
63445;DHT22;49573;47.682;9.170;2024-01-11T12:16:56;-3276.00;79.20
63445;DHT22;49573;47.682;9.170;2024-01-11T12:19:42;-3275.90;78.30
63445;DHT22;49573;47.682;9.170;2024-01-11T12:22:28;-3276.00;78.40
63445;DHT22;49573;47.682;9.170;2024-01-11T12:25:16;-3275.90;77.50
63445;DHT22;49573;47.682;9.170;2024-01-11T12:28:02;-3275.80;77.80
63445;DHT22;49573;47.682;9.170;2024-01-11T12:30:48;-3275.90;78.10
63445;DHT22;49573;47.682;9.170;2024-01-11T12:33:34;-3276.10;77.80
63445;DHT22;49573;47.682;9.170;2024-01-11T12:36:21;-3276.10;77.30
63445;DHT22;49573;47.682;9.170;2024-01-11T12:39:07;-3276.10;77.30
63445;DHT22;49573;47.682;9.170;2024-01-11T12:41:56;-3276.10;77.00
63445;DHT22;49573;47.682;9.170;2024-01-11T12:44:43;-3276.20;76.20
63445;DHT22;49573;47.682;9.170;2024-01-11T12:47:29;-3276.20;77.00
63445;DHT22;49573;47.682;9.170;2024-01-11T12:50:17;-3276.30;76.90
63445;DHT22;49573;47.682;9.170;2024-01-11T12:53:07;-3276.40;76.90
63445;DHT22;49573;47.682;9.170;2024-01-11T12:56:02;-3276.40;76.80
63445;DHT22;49573;47.682;9.170;2024-01-11T12:58:50;-3276.40;76.70
63445;DHT22;49573;47.682;9.170;2024-01-11T13:01:37;-3276.50;76.50
63445;DHT22;49573;47.682;9.170;2024-01-11T13:04:23;-3276.50;76.30
63445;DHT22;49573;47.682;9.170;2024-01-11T13:07:10;-3276.60;76.70
63445;DHT22;49573;47.682;9.170;2024-01-11T13:09:58;-3276.60;76.50
63445;DHT22;49573;47.682;9.170;2024-01-11T13:12:45;-3276.60;75.90
63445;DHT22;49573;47.682;9.170;2024-01-11T13:15:32;-3276.60;75.80
63445;DHT22;49573;47.682;9.170;2024-01-11T13:18:18;-3276.70;75.90
63445;DHT22;49573;47.682;9.170;2024-01-11T13:21:05;-3276.70;76.00
63445;DHT22;49573;47.682;9.170;2024-01-11T13:23:52;0.00;76.00
63445;DHT22;49573;47.682;9.170;2024-01-11T13:26:39;0.00;75.70
63445;DHT22;49573;47.682;9.170;2024-01-11T13:29:26;0.00;75.30
63445;DHT22;49573;47.682;9.170;2024-01-11T13:32:13;0.00;75.40
63445;DHT22;49573;47.682;9.170;2024-01-11T13:34:59;0.00;75.60
63445;DHT22;49573;47.682;9.170;2024-01-11T13:37:46;0.00;75.30
63445;DHT22;49573;47.682;9.170;2024-01-11T13:40:32;0.00;75.30
63445;DHT22;49573;47.682;9.170;2024-01-11T13:43:19;0.00;75.50
63445;DHT22;49573;47.682;9.170;2024-01-11T13:46:05;-3276.70;75.60
63445;DHT22;49573;47.682;9.170;2024-01-11T13:48:52;-3276.70;75.70
63445;DHT22;49573;47.682;9.170;2024-01-11T13:51:38;-3276.70;76.00
63445;DHT22;49573;47.682;9.170;2024-01-11T13:54:24;-3276.70;75.90
63445;DHT22;49573;47.682;9.170;2024-01-11T13:57:10;-3276.70;75.40
63445;DHT22;49573;47.682;9.170;2024-01-11T13:59:57;-3276.60;75.90
63445;DHT22;49573;47.682;9.170;2024-01-11T14:02:43;-3276.60;76.50
63445;DHT22;49573;47.682;9.170;2024-01-11T14:05:30;-3276.60;76.40
63445;DHT22;49573;47.682;9.170;2024-01-11T14:08:16;-3276.60;76.20
63445;DHT22;49573;47.682;9.170;2024-01-11T14:11:03;-3276.60;76.40
63445;DHT22;49573;47.682;9.170;2024-01-11T14:13:49;-3276.60;76.60
63445;DHT22;49573;47.682;9.170;2024-01-11T14:16:35;-3276.50;76.40
63445;DHT22;49573;47.682;9.170;2024-01-11T14:19:21;-3276.50;76.90
63445;DHT22;49573;47.682;9.170;2024-01-11T14:22:09;-3276.60;76.80
63445;DHT22;49573;47.682;9.170;2024-01-11T14:24:55;-3276.50;76.60
63445;DHT22;49573;47.682;9.170;2024-01-11T14:27:41;-3276.60;77.00
63445;DHT22;49573;47.682;9.170;2024-01-11T14:30:28;-3276.50;76.90
63445;DHT22;49573;47.682;9.170;2024-01-11T14:33:14;-3276.40;77.10
63445;DHT22;49573;47.682;9.170;2024-01-11T14:36:00;-3276.50;77.00
63445;DHT22;49573;47.682;9.170;2024-01-11T14:38:48;-3276.50;77.10
63445;DHT22;49573;47.682;9.170;2024-01-11T14:41:34;-3276.50;77.10
63445;DHT22;49573;47.682;9.170;2024-01-11T14:44:20;-3276.40;77.40
63445;DHT22;49573;47.682;9.170;2024-01-11T14:47:06;-3276.50;77.40
63445;DHT22;49573;47.682;9.170;2024-01-11T14:49:52;-3276.40;77.50
63445;DHT22;49573;47.682;9.170;2024-01-11T14:52:38;-3276.40;77.70
63445;DHT22;49573;47.682;9.170;2024-01-11T14:55:26;-3276.40;77.50
63445;DHT22;49573;47.682;9.170;2024-01-11T14:58:12;-3276.50;77.40
63445;DHT22;49573;47.682;9.170;2024-01-11T15:00:58;-3276.40;77.10
63445;DHT22;49573;47.682;9.170;2024-01-11T15:03:44;-3276.30;77.50
63445;DHT22;49573;47.682;9.170;2024-01-11T15:06:30;-3276.40;77.60
63445;DHT22;49573;47.682;9.170;2024-01-11T15:09:16;-3276.40;77.50
63445;DHT22;49573;47.682;9.170;2024-01-11T15:12:04;-3276.30;77.50
63445;DHT22;49573;47.682;9.170;2024-01-11T15:14:50;-3276.40;78.00
63445;DHT22;49573;47.682;9.170;2024-01-11T15:17:36;-3276.40;77.90
63445;DHT22;49573;47.682;9.170;2024-01-11T15:20:22;-3276.40;78.00
63445;DHT22;49573;47.682;9.170;2024-01-11T15:23:09;-3276.40;77.70
63445;DHT22;49573;47.682;9.170;2024-01-11T15:25:55;-3276.30;77.80
63445;DHT22;49573;47.682;9.170;2024-01-11T15:28:42;-3276.40;78.00
63445;DHT22;49573;47.682;9.170;2024-01-11T15:31:28;-3276.40;78.10
63445;DHT22;49573;47.682;9.170;2024-01-11T15:34:14;-3276.40;77.80
63445;DHT22;49573;47.682;9.170;2024-01-11T15:37:00;-3276.30;78.30
63445;DHT22;49573;47.682;9.170;2024-01-11T15:39:46;-3276.40;78.40
63445;DHT22;49573;47.682;9.170;2024-01-11T15:42:33;-3276.40;78.40
63445;DHT22;49573;47.682;9.170;2024-01-11T15:45:21;-3276.40;78.50
63445;DHT22;49573;47.682;9.170;2024-01-11T15:48:07;-3276.40;78.30
63445;DHT22;49573;47.682;9.170;2024-01-11T15:50:53;-3276.40;78.60
63445;DHT22;49573;47.682;9.170;2024-01-11T15:53:43;-3276.40;78.70
63445;DHT22;49573;47.682;9.170;2024-01-11T15:56:29;-3276.40;78.70
63445;DHT22;49573;47.682;9.170;2024-01-11T15:59:15;-3276.40;78.70
63445;DHT22;49573;47.682;9.170;2024-01-11T16:02:03;-3276.40;78.70
63445;DHT22;49573;47.682;9.170;2024-01-11T16:04:50;-3276.40;78.80
63445;DHT22;49573;47.682;9.170;2024-01-11T16:07:36;-3276.40;78.40
63445;DHT22;49573;47.682;9.170;2024-01-11T16:10:22;-3276.40;78.70
63445;DHT22;49573;47.682;9.170;2024-01-11T16:13:08;-3276.40;78.80
63445;DHT22;49573;47.682;9.170;2024-01-11T16:15:54;-3276.40;78.70
63445;DHT22;49573;47.682;9.170;2024-01-11T16:18:43;-3276.50;78.60
63445;DHT22;49573;47.682;9.170;2024-01-11T16:21:29;-3276.50;78.80
63445;DHT22;49573;47.682;9.170;2024-01-11T16:24:16;-3276.50;78.70
63445;DHT22;49573;47.682;9.170;2024-01-11T16:27:03;-3276.50;78.80
63445;DHT22;49573;47.682;9.170;2024-01-11T16:29:51;-3276.40;78.80
63445;DHT22;49573;47.682;9.170;2024-01-11T16:32:37;-3276.40;78.80
63445;DHT22;49573;47.682;9.170;2024-01-11T16:35:25;-3276.50;78.70
63445;DHT22;49573;47.682;9.170;2024-01-11T16:38:11;-3276.50;78.70
63445;DHT22;49573;47.682;9.170;2024-01-11T16:40:57;-3276.50;78.60
63445;DHT22;49573;47.682;9.170;2024-01-11T16:43:43;-3276.40;78.60
63445;DHT22;49573;47.682;9.170;2024-01-11T16:46:30;-3276.40;78.70
63445;DHT22;49573;47.682;9.170;2024-01-11T16:49:16;-3276.40;78.90
63445;DHT22;49573;47.682;9.170;2024-01-11T16:52:04;-3276.50;78.80